createdAt,value
2017-11-09T00:02:17.495Z,73.00
2017-11-09T00:04:55.001Z,72.00
2017-11-09T00:07:25.524Z,81.50
2017-11-09T00:10:11.098Z,77.75
2017-11-09T00:12:46.121Z,75.50
2017-11-09T00:15:40.436Z,74.50
2017-11-09T00:18:11.189Z,77.50
2017-11-09T00:20:42.197Z,76.75
2017-11-09T00:23:18.760Z,81.00
2017-11-09T00:25:49.305Z,70.50
2017-11-09T00:28:19.606Z,79.00
2017-11-09T00:30:52.412Z,69.50
2017-11-09T00:33:23.248Z,77.50
2017-11-09T00:35:54.173Z,74.50
2017-11-09T00:38:26.703Z,77.00
2017-11-09T00:40:58.523Z,76.25
2017-11-09T00:43:29.253Z,73.25
2017-11-09T00:46:00.569Z,76.50
2017-11-09T00:48:32.058Z,76.50
2017-11-09T00:51:10.468Z,80.50
2017-11-09T00:53:40.702Z,76.75
2017-11-09T00:56:11.503Z,76.00
2017-11-09T00:58:48.251Z,72.25
2017-11-09T01:01:24.511Z,69.75
2017-11-09T01:04:04.243Z,75.75
2017-11-09T01:06:36.409Z,77.50
2017-11-09T01:09:07.337Z,69.75
2017-11-09T01:11:37.659Z,74.00
2017-11-09T01:14:07.862Z,76.00
2017-11-09T01:16:39.633Z,82.75
2017-11-09T01:19:10.430Z,74.50
2017-11-09T01:21:48.257Z,78.25
2017-11-09T01:24:19.675Z,76.75
2017-11-09T01:26:51.416Z,77.25
2017-11-09T01:29:22.398Z,71.25
2017-11-09T01:31:54.148Z,75.00
2017-11-09T01:34:24.492Z,79.50
2017-11-09T01:36:56.011Z,79.25
2017-11-09T01:39:27.189Z,81.50
2017-11-09T01:41:58.867Z,74.00
2017-11-09T01:44:29.036Z,79.00
2017-11-09T01:47:13.099Z,75.00
2017-11-09T01:49:43.467Z,77.50
2017-11-09T01:52:18.621Z,73.50
2017-11-09T01:54:52.133Z,73.00
2017-11-09T01:57:23.515Z,72.75
2017-11-09T01:59:54.322Z,72.75
2017-11-09T02:04:25.633Z,77.50
2017-11-09T02:06:56.585Z,73.00
2017-11-09T02:09:28.591Z,74.75
2017-11-09T02:12:00.357Z,73.50
2017-11-09T02:23:47.368Z,70.50
2017-11-09T02:26:18.542Z,76.00
2017-11-09T02:28:57.789Z,72.25
2017-11-09T02:31:46.743Z,72.00
2017-11-09T02:34:35.673Z,74.50
2017-11-09T02:37:09.261Z,74.00
2017-11-09T02:39:41.179Z,75.00
2017-11-09T02:42:12.654Z,77.75
2017-11-09T02:44:43.901Z,81.25
2017-11-09T02:47:15.867Z,72.25
2017-11-09T02:49:49.105Z,71.25
2017-11-09T02:52:21.777Z,73.50
2017-11-09T02:54:58.566Z,82.00
2017-11-09T02:57:29.390Z,77.25
2017-11-09T02:59:59.697Z,75.50
2017-11-09T03:02:31.842Z,71.75
2017-11-09T03:05:03.141Z,77.00
2017-11-09T03:07:35.128Z,85.25
2017-11-09T03:10:06.825Z,77.00
2017-11-09T03:12:42.147Z,80.50
2017-11-09T03:15:17.050Z,71.25
2017-11-09T03:17:51.157Z,77.50
2017-11-09T03:20:29.964Z,70.50
2017-11-09T03:23:02.475Z,80.50
2017-11-09T03:25:33.202Z,75.00
2017-11-09T03:28:04.034Z,77.00
2017-11-09T03:30:38.929Z,77.25
2017-11-09T03:33:10.091Z,76.00
2017-11-09T03:35:40.851Z,82.50
2017-11-09T03:38:11.331Z,80.75
2017-11-09T03:40:42.326Z,76.50
2017-11-09T03:49:45.698Z,73.75
2017-11-09T03:52:17.698Z,79.25
2017-11-09T03:54:48.466Z,77.25
2017-11-09T03:57:27.438Z,72.00
2017-11-09T04:00:21.763Z,78.50
2017-11-09T04:08:35.840Z,84.00
2017-11-09T04:11:16.244Z,82.00
2017-11-09T04:13:53.269Z,75.75
2017-11-09T04:16:25.082Z,79.75
2017-11-09T04:18:56.889Z,78.50
2017-11-09T04:21:27.523Z,80.00
2017-11-09T04:23:57.958Z,74.25
2017-11-09T04:26:29.174Z,77.25
2017-11-09T04:28:59.682Z,85.00
2017-11-09T04:31:31.425Z,81.25
2017-11-09T04:34:03.774Z,82.50
2017-11-09T04:36:35.688Z,78.75
2017-11-09T04:39:06.613Z,86.00
2017-11-09T04:41:43.831Z,79.00
2017-11-09T04:44:25.776Z,75.00
2017-11-09T04:46:57.175Z,84.75
2017-11-09T04:49:29.269Z,74.50
2017-11-09T04:51:59.585Z,70.25
2017-11-09T04:54:35.157Z,69.50
2017-11-09T04:57:07.315Z,79.25
2017-11-09T05:03:04.195Z,77.00
2017-11-09T05:07:47.571Z,81.50
2017-11-09T05:10:26.054Z,72.00
2017-11-09T05:13:02.603Z,72.50
2017-11-09T05:15:39.405Z,70.50
2017-11-09T05:18:10.529Z,78.00
2017-11-09T05:20:41.650Z,78.25
2017-11-09T05:23:20.872Z,74.50
2017-11-09T05:26:06.217Z,76.25
2017-11-09T05:28:39.636Z,75.25
2017-11-09T05:31:10.051Z,67.75
2017-11-09T05:33:42.152Z,72.00
2017-11-09T05:36:22.531Z,70.50
2017-11-09T05:38:55.542Z,75.50
2017-11-09T05:41:26.367Z,68.75
2017-11-09T05:43:57.744Z,73.00
2017-11-09T05:46:28.318Z,73.25
2017-11-09T05:49:00.729Z,72.75
2017-11-09T05:51:33.875Z,80.25
2017-11-09T05:54:15.504Z,75.00
2017-11-09T05:56:46.753Z,67.00
2017-11-09T05:59:17.723Z,75.00
2017-11-09T06:01:48.425Z,79.00
2017-11-09T06:04:23.240Z,66.25
2017-11-09T06:06:53.576Z,74.50
2017-11-09T06:09:28.924Z,69.00
2017-11-09T06:11:59.347Z,70.75
2017-11-09T06:14:31.352Z,72.75
2017-11-09T06:17:01.942Z,75.75
2017-11-09T06:19:32.752Z,76.25
2017-11-09T06:22:06.654Z,85.00
2017-11-09T06:24:41.175Z,68.25
2017-11-09T06:27:21.818Z,71.50
2017-11-09T06:29:53.159Z,68.50
2017-11-09T06:32:23.773Z,77.00
2017-11-09T06:34:54.720Z,65.50
2017-11-09T06:37:42.090Z,74.50
2017-11-09T06:40:25.254Z,73.00
2017-11-09T06:42:56.509Z,74.00
2017-11-09T06:45:27.626Z,71.50
2017-11-09T06:47:58.260Z,69.75
2017-11-09T06:50:30.577Z,71.00
2017-11-09T06:53:01.348Z,70.00
2017-11-09T06:55:32.158Z,62.75
2017-11-09T06:58:05.780Z,76.25
2017-11-09T07:00:36.812Z,68.25
2017-11-09T07:03:07.437Z,74.00
2017-11-09T07:05:41.834Z,75.00
2017-11-09T09:33:17.596Z,69.50
2017-11-09T09:35:59.593Z,76.00
2017-11-09T09:38:45.579Z,71.25
2017-11-09T09:41:22.184Z,79.00
2017-11-09T09:43:55.035Z,76.00
2017-11-09T09:46:28.692Z,82.00
2017-11-09T09:52:21.996Z,60.75
2017-11-09T09:54:54.959Z,69.75
2017-11-09T09:57:31.567Z,79.75
2017-11-09T10:00:08.380Z,71.00
2017-11-09T10:02:41.854Z,73.25
2017-11-09T10:05:13.366Z,77.50
2017-11-09T10:07:47.343Z,67.50
2017-11-09T10:10:20.374Z,71.75
2017-11-09T10:15:52.571Z,66.00
2017-11-09T10:18:26.555Z,70.75
2017-11-09T10:21:04.611Z,76.00
2017-11-09T10:26:29.601Z,67.75
2017-11-09T10:29:04.652Z,56.75
2017-11-09T10:31:38.358Z,68.50
2017-11-09T10:34:10.896Z,70.75
2017-11-09T10:39:33.953Z,69.75
2017-11-09T10:42:07.545Z,81.25
2017-11-09T10:44:55.062Z,85.25
2017-11-09T10:47:28.439Z,76.75
2017-11-09T10:50:04.560Z,70.25
2017-11-09T11:05:44.458Z,69.75
2017-11-09T11:08:23.278Z,65.50
2017-11-09T11:11:00.595Z,70.75
2017-11-09T11:16:31.367Z,66.50
2017-11-09T11:19:05.165Z,68.25
2017-11-09T11:21:40.261Z,72.25
2017-11-09T11:24:22.762Z,68.00
2017-11-09T11:27:01.219Z,66.50
2017-11-09T11:29:32.973Z,67.00
2017-11-09T11:35:09.661Z,65.25
2017-11-09T11:37:43.379Z,67.25
2017-11-09T11:40:19.869Z,66.50
2017-11-09T11:43:00.468Z,71.75
2017-11-09T11:45:34.972Z,72.25
2017-11-09T11:48:12.698Z,71.25
2017-11-09T11:53:28.265Z,69.75
2017-11-09T11:56:00.165Z,67.50
2017-11-09T11:58:36.070Z,64.50
2017-11-09T12:01:11.392Z,60.00
2017-11-09T12:04:00.019Z,69.25
2017-11-09T12:06:33.856Z,68.75
2017-11-09T12:09:08.626Z,67.00
2017-11-09T12:12:03.999Z,62.00
2017-11-09T12:14:35.612Z,64.25
2017-11-09T12:17:10.556Z,68.25
2017-11-09T12:24:41.585Z,69.50
2017-11-09T12:27:12.968Z,58.25
2017-11-09T12:29:48.642Z,62.75
2017-11-09T12:32:25.461Z,68.25
2017-11-09T12:34:58.770Z,66.00
2017-11-09T12:37:32.362Z,59.75
2017-11-09T12:40:16.414Z,60.25
2017-11-09T12:45:29.166Z,60.25
2017-11-09T12:48:03.036Z,62.25
2017-11-09T12:50:35.637Z,65.00
2017-11-09T12:53:07.750Z,65.75
2017-11-09T12:58:30.667Z,62.00
2017-11-09T13:01:03.360Z,62.75
2017-11-09T13:03:35.549Z,64.75
2017-11-09T13:06:09.462Z,68.25
2017-11-09T13:08:44.275Z,63.25
2017-11-09T13:11:26.977Z,66.75
2017-11-09T13:14:06.711Z,66.75
2017-11-09T13:16:46.681Z,66.75
2017-11-09T13:19:29.485Z,63.00
2017-11-09T13:22:03.531Z,68.75
2017-11-09T13:24:47.950Z,61.50
2017-11-09T13:27:21.476Z,69.75
2017-11-09T13:29:53.776Z,65.50
2017-11-09T13:32:43.481Z,65.00
2017-11-09T13:37:52.247Z,63.50
2017-11-09T13:40:31.252Z,58.00
2017-11-09T13:48:38.543Z,64.25
2017-11-09T13:51:11.892Z,61.25
2017-11-09T13:53:45.597Z,64.00
2017-11-09T13:56:27.468Z,64.75
2017-11-09T13:59:00.241Z,70.00
2017-11-09T14:01:33.955Z,62.25
2017-11-09T14:04:06.440Z,61.75
2017-11-09T14:06:39.254Z,69.50
2017-11-09T14:09:23.970Z,61.50
2017-11-09T14:11:55.475Z,56.75
2017-11-09T14:14:26.668Z,65.25
2017-11-09T14:17:15.774Z,64.25
2017-11-09T14:19:47.513Z,64.75
2017-11-09T14:25:05.992Z,68.25
2017-11-09T14:27:58.526Z,66.50
2017-11-09T14:30:35.219Z,63.75
2017-11-09T14:33:26.956Z,60.00
2017-11-09T14:38:58.555Z,60.00
2017-11-09T14:41:35.661Z,61.25
2017-11-09T14:44:08.952Z,63.00
2017-11-09T14:46:48.368Z,62.25
2017-11-09T14:49:32.095Z,64.00
2017-11-09T14:52:11.404Z,70.00
2017-11-09T14:54:44.149Z,61.50
2017-11-09T14:57:26.286Z,61.00
